Terminal Aerodrome Forecast
Issued by NWS Boston, MA

Home | Current Version | Previous Version | Text Only | Print | Product List | Glossary On
Versions: 1 2 3 4 5 6 7 8 9 10 11 12 13 14 15 16 17 18 19 20 21 22 23 24 25 26
000
FTUS41 KBOX 072335
TAFBOS
TAF
KBOS 072335Z 0800/0906 26003KT P6SM SCT015 BKN030
     FM080200 26004KT P6SM FEW030 BKN140
     FM081500 26008KT P6SM OVC100
     FM082300 26011G22KT P6SM BKN130
     FM090000 26011G23KT P6SM SCT045
     FM090100 26012G22KT P6SM SCT250=

USA.gov is the U.S. government's official web portal to all federal, state and local government web resources and services.